createdAt,value
2024-03-12T00:01:21.794Z,2.90
2024-03-12T00:03:50.531Z,3.40
2024-03-12T00:06:21.112Z,3.27
2024-03-12T00:08:49.586Z,3.33
2024-03-12T00:11:17.390Z,2.90
2024-03-12T00:13:45.131Z,2.43
2024-03-12T00:16:12.817Z,3.40
2024-03-12T00:18:43.110Z,3.20
2024-03-12T00:21:10.915Z,2.97
2024-03-12T00:23:43.114Z,2.80
2024-03-12T00:26:11.863Z,3.20
2024-03-12T00:28:39.567Z,3.10
2024-03-12T00:31:07.456Z,2.97
2024-03-12T00:33:35.290Z,2.60
2024-03-12T00:36:03.285Z,2.90
2024-03-12T00:38:32.661Z,2.83
2024-03-12T00:41:01.866Z,2.63
2024-03-12T00:43:30.566Z,3.17
2024-03-12T00:45:58.622Z,2.97
2024-03-12T00:48:26.450Z,3.17
2024-03-12T00:50:54.748Z,2.80
2024-03-12T00:53:22.708Z,3.13
2024-03-12T00:55:50.408Z,4.60
2024-03-12T00:58:21.696Z,3.20
2024-03-12T01:00:51.624Z,3.17
2024-03-12T01:03:19.395Z,2.60
2024-03-12T01:05:47.260Z,3.00
2024-03-12T01:08:15.601Z,3.13
2024-03-12T01:10:43.368Z,3.70
2024-03-12T01:13:11.967Z,3.03
2024-03-12T01:15:42.089Z,3.37
2024-03-12T01:18:10.569Z,3.60
2024-03-12T01:20:38.509Z,3.30
2024-03-12T01:23:07.510Z,3.30
2024-03-12T01:25:36.965Z,3.63
2024-03-12T01:28:07.066Z,3.60
2024-03-12T01:30:36.149Z,3.80
2024-03-12T01:33:07.449Z,3.50
2024-03-12T01:35:39.220Z,3.23
2024-03-12T01:38:07.503Z,3.60
2024-03-12T01:40:36.214Z,3.70
2024-03-12T01:43:07.928Z,3.60
2024-03-12T01:45:38.082Z,3.10
2024-03-12T01:48:10.776Z,3.07
2024-03-12T01:50:41.322Z,4.10
2024-03-12T01:53:10.628Z,3.10
2024-03-12T01:55:44.099Z,3.27
2024-03-12T01:58:15.849Z,3.70
2024-03-12T02:00:45.272Z,3.00
2024-03-12T02:03:15.004Z,3.07
2024-03-12T02:05:43.615Z,3.30
2024-03-12T02:08:12.251Z,3.73
2024-03-12T02:10:39.983Z,2.57
2024-03-12T02:13:07.869Z,2.90
2024-03-12T02:15:36.056Z,3.80
2024-03-12T02:18:03.956Z,3.67
2024-03-12T02:20:33.032Z,3.47
2024-03-12T02:23:01.004Z,3.70
2024-03-12T02:25:29.983Z,3.63
2024-03-12T02:27:57.973Z,3.23
2024-03-12T02:30:25.826Z,3.80
2024-03-12T02:32:53.930Z,3.47
2024-03-12T02:35:22.181Z,4.27
2024-03-12T02:37:49.836Z,3.93
2024-03-12T02:40:19.524Z,3.10
2024-03-12T02:42:48.733Z,3.50
2024-03-12T02:45:17.773Z,3.20
2024-03-12T02:47:47.501Z,3.60
2024-03-12T02:50:16.434Z,4.30
2024-03-12T02:52:45.446Z,3.70
2024-03-12T02:55:13.296Z,4.13
2024-03-12T02:57:41.117Z,4.20
2024-03-12T03:00:14.186Z,3.33
2024-03-12T03:02:43.353Z,3.90
2024-03-12T03:05:12.260Z,3.80
2024-03-12T03:07:42.277Z,3.50
2024-03-12T03:10:12.772Z,3.63
2024-03-12T03:12:41.848Z,3.77
2024-03-12T03:15:13.216Z,3.80
2024-03-12T03:17:43.272Z,3.90
2024-03-12T03:20:13.833Z,4.10
2024-03-12T03:22:41.611Z,4.13
2024-03-12T03:25:12.928Z,4.40
2024-03-12T03:27:40.849Z,3.50
2024-03-12T03:30:13.843Z,4.20
2024-03-12T03:32:41.839Z,3.77
2024-03-12T03:35:09.918Z,3.77
2024-03-12T03:37:38.072Z,4.00
2024-03-12T03:40:11.023Z,4.10
2024-03-12T03:42:40.331Z,4.30
2024-03-12T03:45:09.355Z,3.80
2024-03-12T03:47:38.485Z,3.80
2024-03-12T03:50:08.598Z,4.13
2024-03-12T03:52:37.876Z,3.40
2024-03-12T03:55:06.640Z,3.80
2024-03-12T03:57:34.780Z,3.90
2024-03-12T04:00:13.258Z,4.23
2024-03-12T04:02:44.486Z,4.57
2024-03-12T04:05:13.461Z,3.87
2024-03-12T04:07:42.693Z,4.27
2024-03-12T04:10:12.502Z,4.53
2024-03-12T04:12:41.774Z,4.47
2024-03-12T04:15:10.979Z,5.20
2024-03-12T04:17:39.029Z,3.50
2024-03-12T04:20:10.846Z,3.80
2024-03-12T04:22:39.642Z,4.40
2024-03-12T04:25:09.252Z,3.90
2024-03-12T04:27:38.109Z,4.17
2024-03-12T04:30:07.157Z,3.83
2024-03-12T04:32:36.498Z,4.20
2024-03-12T04:35:05.656Z,4.33
2024-03-12T04:37:35.004Z,3.90
2024-03-12T04:40:07.703Z,3.90
2024-03-12T04:42:36.213Z,4.20
2024-03-12T04:45:05.808Z,4.33
2024-03-12T04:47:34.280Z,4.00
2024-03-12T04:50:03.802Z,4.13
2024-03-12T04:52:34.725Z,4.73
2024-03-12T04:55:06.277Z,4.20
2024-03-12T04:57:36.364Z,4.40
2024-03-12T05:00:16.430Z,5.10
2024-03-12T05:02:45.062Z,4.23
2024-03-12T05:05:14.825Z,4.60
2024-03-12T05:07:42.749Z,4.70
2024-03-12T05:10:12.985Z,4.47
2024-03-12T05:12:41.605Z,4.50
2024-03-12T05:15:10.370Z,4.50
2024-03-12T05:17:38.596Z,5.47
2024-03-12T05:20:10.495Z,4.93
2024-03-12T05:22:38.722Z,5.97
2024-03-12T05:25:10.944Z,4.80
2024-03-12T05:27:43.744Z,5.30
2024-03-12T05:32:58.104Z,5.33
2024-03-12T05:35:31.071Z,5.10
2024-03-12T05:38:05.679Z,14.27
2024-03-12T05:40:58.489Z,8.83
2024-03-12T05:43:46.194Z,6.47
2024-03-12T05:46:44.620Z,7.00
2024-03-12T05:49:12.614Z,6.27
2024-03-12T05:51:40.840Z,7.70
2024-03-12T05:54:08.771Z,6.00
2024-03-12T05:56:38.685Z,5.33
2024-03-12T05:59:08.187Z,6.33
2024-03-12T06:01:36.148Z,5.90
2024-03-12T06:04:06.099Z,5.13
2024-03-12T06:06:34.570Z,5.60
2024-03-12T06:09:02.284Z,4.80
2024-03-12T06:11:31.101Z,5.37
2024-03-12T06:14:02.174Z,8.00
2024-03-12T06:16:32.981Z,13.17
2024-03-12T06:19:00.663Z,6.93
2024-03-12T06:21:28.648Z,8.33
2024-03-12T06:23:56.319Z,6.17
2024-03-12T06:26:24.246Z,5.90
2024-03-12T06:28:52.254Z,5.80
2024-03-12T06:31:20.422Z,5.40
2024-03-12T06:33:50.504Z,4.90
2024-03-12T06:36:18.345Z,5.87
2024-03-12T06:38:48.160Z,5.30
2024-03-12T06:41:15.921Z,5.20
2024-03-12T06:43:43.635Z,5.97
2024-03-12T06:46:17.431Z,5.73
2024-03-12T06:48:46.288Z,6.10
2024-03-12T06:51:16.700Z,4.93
2024-03-12T06:53:45.268Z,5.00
2024-03-12T06:56:17.245Z,5.23
2024-03-12T06:58:46.427Z,5.07
2024-03-12T07:01:16.431Z,4.73
2024-03-12T07:03:44.958Z,5.60
2024-03-12T07:06:13.122Z,4.87
2024-03-12T07:08:46.201Z,5.27
2024-03-12T07:11:18.282Z,5.47
2024-03-12T07:13:49.884Z,5.07
2024-03-12T07:16:18.029Z,5.00
2024-03-12T07:18:47.581Z,5.00
2024-03-12T07:21:15.591Z,4.67
2024-03-12T07:23:44.665Z,5.40
2024-03-12T07:26:12.460Z,5.23
2024-03-12T07:28:40.393Z,4.63
2024-03-12T07:31:08.052Z,4.40
2024-03-12T07:33:35.790Z,6.03
2024-03-12T07:36:05.153Z,5.30
2024-03-12T07:38:34.737Z,4.77
2024-03-12T07:41:03.830Z,5.83
2024-03-12T07:43:31.472Z,5.07
2024-03-12T07:46:00.304Z,5.17
2024-03-12T07:48:28.546Z,4.83
2024-03-12T07:51:00.877Z,4.60
2024-03-12T07:53:30.923Z,5.27
2024-03-12T07:56:01.935Z,4.70
2024-03-12T07:58:31.413Z,4.73
2024-03-12T08:01:00.179Z,5.50
2024-03-12T08:03:28.620Z,5.00
2024-03-12T08:05:56.612Z,4.50
2024-03-12T08:08:24.634Z,5.33
2024-03-12T08:10:52.436Z,4.40
2024-03-12T08:13:22.533Z,5.20
2024-03-12T08:15:51.585Z,4.83
2024-03-12T08:18:21.705Z,6.00
2024-03-12T08:20:49.804Z,5.97
2024-03-12T08:23:20.466Z,5.60
2024-03-12T08:25:56.288Z,5.50
2024-03-12T08:28:28.426Z,5.60
2024-03-12T08:31:02.498Z,6.77
2024-03-12T08:33:36.243Z,5.40
2024-03-12T08:36:04.391Z,6.17
2024-03-12T08:38:32.197Z,5.80
2024-03-12T08:40:59.894Z,6.13
2024-03-12T08:43:27.610Z,6.10
2024-03-12T08:45:55.463Z,6.43
2024-03-12T08:48:24.419Z,6.40
2024-03-12T08:50:52.019Z,6.83
2024-03-12T08:53:19.680Z,7.07
2024-03-12T08:55:47.345Z,6.90
2024-03-12T08:58:20.982Z,6.00
2024-03-12T09:03:41.363Z,11.33
2024-03-12T09:06:11.026Z,6.87
2024-03-12T09:08:47.860Z,6.33
2024-03-12T09:11:21.909Z,6.80
2024-03-12T09:13:49.946Z,7.10
2024-03-12T09:16:17.669Z,6.37
2024-03-12T09:18:47.021Z,7.30
2024-03-12T09:21:16.135Z,6.27
2024-03-12T09:23:52.781Z,7.50
2024-03-12T09:26:28.825Z,6.73
2024-03-12T09:28:56.666Z,5.80
2024-03-12T09:31:24.716Z,6.70
2024-03-12T09:33:54.205Z,6.80
2024-03-12T09:36:22.396Z,7.30
2024-03-12T09:38:51.576Z,6.70
2024-03-12T09:41:21.952Z,6.87
2024-03-12T09:43:52.352Z,6.80
2024-03-12T09:46:21.100Z,7.63
2024-03-12T09:48:50.565Z,7.07
2024-03-12T09:51:22.426Z,8.27
2024-03-12T09:53:50.670Z,7.90
2024-03-12T09:56:19.165Z,7.80
2024-03-12T09:58:49.144Z,7.10
2024-03-12T10:01:17.048Z,8.67
2024-03-12T10:03:47.432Z,7.67
2024-03-12T10:06:17.803Z,8.50
2024-03-12T10:08:46.820Z,8.17
2024-03-12T10:11:20.974Z,7.53
2024-03-12T10:13:57.031Z,7.40
2024-03-12T10:16:26.769Z,8.50
2024-03-12T10:19:15.870Z,11.77
2024-03-12T10:21:46.060Z,8.70
2024-03-12T10:24:18.539Z,8.70
2024-03-12T10:26:47.442Z,8.47
2024-03-12T10:29:19.217Z,8.27
2024-03-12T10:31:47.956Z,8.70
2024-03-12T10:34:19.053Z,8.17
2024-03-12T10:36:48.107Z,8.37
2024-03-12T10:39:28.584Z,8.30
2024-03-12T10:41:58.930Z,9.87
2024-03-12T10:44:29.164Z,8.80
2024-03-12T10:46:59.467Z,8.83
2024-03-12T10:49:29.973Z,8.70
2024-03-12T10:51:59.891Z,9.67
2024-03-12T10:54:34.216Z,8.57
2024-03-12T10:57:05.020Z,9.10
2024-03-12T10:59:37.815Z,9.30
2024-03-12T11:02:10.360Z,9.50
2024-03-12T11:04:38.283Z,9.10
2024-03-12T11:07:07.535Z,8.80
2024-03-12T11:09:37.947Z,10.30
2024-03-12T11:12:06.195Z,9.23
2024-03-12T11:14:34.257Z,8.53
2024-03-12T11:17:02.198Z,9.47
2024-03-12T11:19:32.873Z,8.90
2024-03-12T11:22:11.396Z,8.63
2024-03-12T11:24:49.814Z,9.30
2024-03-12T11:27:20.921Z,8.80
2024-03-12T11:30:15.508Z,8.30
2024-03-12T11:32:45.161Z,8.17
2024-03-12T11:35:29.945Z,8.03
2024-03-12T11:38:11.345Z,8.73
2024-03-12T11:40:50.115Z,8.73
2024-03-12T11:43:36.838Z,8.37
2024-03-12T11:46:06.056Z,9.20
2024-03-12T11:48:38.060Z,9.50
2024-03-12T11:51:10.105Z,8.50
2024-03-12T11:53:39.523Z,8.70
2024-03-12T11:56:16.696Z,9.33
2024-03-12T11:58:48.648Z,9.10
2024-03-12T12:01:21.452Z,9.10
2024-03-12T12:03:56.005Z,8.87
2024-03-12T12:06:23.747Z,8.30
2024-03-12T12:08:57.314Z,9.40
2024-03-12T12:11:30.472Z,8.87
2024-03-12T12:14:01.281Z,7.87
2024-03-12T12:16:30.427Z,8.23
2024-03-12T12:19:06.521Z,7.10
2024-03-12T12:21:35.423Z,8.07
2024-03-12T12:24:04.795Z,7.00
2024-03-12T12:26:37.229Z,7.60
2024-03-12T12:29:05.861Z,7.30
2024-03-12T12:31:37.124Z,7.00
2024-03-12T12:34:07.699Z,7.60
2024-03-12T12:36:39.653Z,7.80
2024-03-12T12:39:11.259Z,8.30
2024-03-12T12:41:44.359Z,7.50
2024-03-12T12:44:16.953Z,7.90
2024-03-12T12:46:46.743Z,7.30
2024-03-12T12:49:16.118Z,8.13
2024-03-12T12:51:45.956Z,6.40
2024-03-12T12:54:16.028Z,7.10
2024-03-12T12:56:47.429Z,6.60
2024-03-12T12:59:17.776Z,6.40
2024-03-12T13:01:49.406Z,5.73
2024-03-12T13:04:23.208Z,6.60
2024-03-12T13:06:52.717Z,6.20
2024-03-12T13:09:31.310Z,6.30
2024-03-12T13:12:01.442Z,5.70
2024-03-12T13:14:28.116Z,6.83
2024-03-12T13:16:55.761Z,5.57
2024-03-12T13:19:24.387Z,6.47
2024-03-12T13:21:54.319Z,7.10
2024-03-12T13:24:22.256Z,6.17
2024-03-12T13:26:52.139Z,5.83
2024-03-12T13:29:21.586Z,5.43
2024-03-12T13:31:50.973Z,6.37
2024-03-12T13:34:19.972Z,6.93
2024-03-12T13:36:49.013Z,6.17
2024-03-12T13:39:17.018Z,6.00
2024-03-12T13:41:44.940Z,5.67
2024-03-12T13:44:12.915Z,5.77
2024-03-12T13:46:44.592Z,6.10
2024-03-12T13:49:15.830Z,6.30
2024-03-12T13:51:44.708Z,6.07
2024-03-12T13:54:12.686Z,5.90
2024-03-12T13:56:41.263Z,6.30
2024-03-12T13:59:10.182Z,6.97
2024-03-12T14:01:38.512Z,6.70
2024-03-12T14:04:07.981Z,7.10
2024-03-12T14:06:35.952Z,7.30
2024-03-12T14:09:05.897Z,7.30
2024-03-12T14:11:33.731Z,8.17
2024-03-12T14:14:01.837Z,7.10
2024-03-12T14:16:31.127Z,7.13
2024-03-12T14:18:59.300Z,7.50
2024-03-12T14:21:30.080Z,7.67
2024-03-12T14:23:58.583Z,7.30
2024-03-12T14:26:26.398Z,7.03
2024-03-12T14:28:54.024Z,7.47
2024-03-12T14:31:21.755Z,7.50
2024-03-12T14:33:50.192Z,8.10
2024-03-12T14:36:18.341Z,7.37
2024-03-12T14:38:49.257Z,7.33
2024-03-12T14:41:18.032Z,8.40
2024-03-12T14:43:45.628Z,8.03
2024-03-12T14:46:13.571Z,7.80
2024-03-12T14:48:41.963Z,8.43
2024-03-12T14:51:10.015Z,8.53
2024-03-12T14:53:37.775Z,9.00
2024-03-12T14:56:07.609Z,10.13
2024-03-12T14:58:35.279Z,8.83
2024-03-12T15:01:05.642Z,8.20
2024-03-12T15:03:33.487Z,9.80
2024-03-12T15:06:02.837Z,8.97
2024-03-12T15:08:30.608Z,8.23
2024-03-12T15:10:59.183Z,9.80
2024-03-12T15:13:28.659Z,10.33
2024-03-12T15:15:56.693Z,11.93
2024-03-12T15:18:24.785Z,11.67
2024-03-12T15:23:25.388Z,12.10
2024-03-12T15:25:54.469Z,12.03
2024-03-12T15:28:23.045Z,11.90
2024-03-12T15:30:52.594Z,11.57
2024-03-12T15:33:20.539Z,10.70
2024-03-12T15:35:48.531Z,10.93
2024-03-12T15:38:16.210Z,12.53
2024-03-12T15:40:43.927Z,11.43
2024-03-12T15:43:11.641Z,10.40
2024-03-12T15:45:39.325Z,10.43
2024-03-12T15:48:09.430Z,11.47
2024-03-12T15:50:39.332Z,11.43
2024-03-12T15:53:07.508Z,10.27
2024-03-12T15:55:36.701Z,10.93
2024-03-12T15:58:04.966Z,12.20
2024-03-12T16:00:33.050Z,10.90
2024-03-12T16:03:00.772Z,11.10
2024-03-12T16:05:30.645Z,11.40
2024-03-12T16:07:59.392Z,11.00
2024-03-12T16:10:27.457Z,11.20
2024-03-12T16:12:56.815Z,11.60
2024-03-12T16:15:26.718Z,13.00
2024-03-12T16:17:55.101Z,11.33
2024-03-12T16:20:23.128Z,12.00
2024-03-12T16:22:52.122Z,11.70
2024-03-12T16:25:19.918Z,12.43
2024-03-12T16:27:47.603Z,11.20
2024-03-12T16:30:16.309Z,11.83
2024-03-12T16:32:45.704Z,11.70
2024-03-12T16:35:15.763Z,11.17
2024-03-12T16:37:44.829Z,11.97
2024-03-12T16:40:14.664Z,11.77
2024-03-12T16:42:43.412Z,11.17
2024-03-12T16:45:12.092Z,11.80
2024-03-12T16:47:40.298Z,12.37
2024-03-12T16:50:11.862Z,10.77
2024-03-12T16:52:40.052Z,11.80
2024-03-12T16:55:09.441Z,12.27
2024-03-12T16:57:39.153Z,11.30
2024-03-12T17:00:12.009Z,11.10
2024-03-12T17:02:43.359Z,11.97
2024-03-12T17:05:14.010Z,12.93
2024-03-12T17:07:42.849Z,11.80
2024-03-12T17:10:11.389Z,12.47
2024-03-12T17:12:41.451Z,11.80
2024-03-12T17:15:10.750Z,12.30
2024-03-12T17:17:40.811Z,11.27
2024-03-12T17:20:11.048Z,12.63
2024-03-12T17:22:41.523Z,11.73
2024-03-12T17:25:11.340Z,11.83
2024-03-12T17:27:42.146Z,12.40
2024-03-12T17:30:12.124Z,13.10
2024-03-12T17:32:44.179Z,13.53
2024-03-12T17:35:14.365Z,13.60
2024-03-12T17:37:44.697Z,12.17
2024-03-12T17:40:19.293Z,12.10
2024-03-12T17:42:50.939Z,11.17
2024-03-12T17:45:19.140Z,12.63
2024-03-12T17:47:51.484Z,12.87
2024-03-12T17:50:20.821Z,12.10
2024-03-12T17:52:50.731Z,12.07
2024-03-12T17:55:19.626Z,12.23
2024-03-12T17:57:50.024Z,12.07
2024-03-12T18:00:19.767Z,13.97
2024-03-12T18:02:49.192Z,12.67
2024-03-12T18:05:20.286Z,11.60
2024-03-12T18:07:49.719Z,11.63
2024-03-12T18:10:19.615Z,11.13
2024-03-12T18:12:49.399Z,12.00
2024-03-12T18:15:17.383Z,10.97
2024-03-12T18:17:46.466Z,12.00
2024-03-12T18:20:20.268Z,13.00
2024-03-12T18:22:48.803Z,12.73
2024-03-12T18:25:16.878Z,13.30
2024-03-12T18:27:45.393Z,12.77
2024-03-12T18:30:14.949Z,13.70
2024-03-12T18:32:42.836Z,13.63
2024-03-12T18:35:11.871Z,13.83
2024-03-12T18:37:40.707Z,13.97
2024-03-12T18:40:13.594Z,13.37
2024-03-12T18:42:42.457Z,14.13
2024-03-12T18:45:13.988Z,15.03
2024-03-12T18:47:44.046Z,15.13
2024-03-12T18:50:13.349Z,14.63
2024-03-12T18:52:41.625Z,16.03
2024-03-12T18:55:11.332Z,15.70
2024-03-12T18:57:41.267Z,17.53
2024-03-12T19:00:11.110Z,17.50
2024-03-12T19:02:41.585Z,17.40
2024-03-12T19:05:12.605Z,17.47
2024-03-12T19:07:41.871Z,20.20
2024-03-12T19:10:11.233Z,19.00
2024-03-12T19:12:41.026Z,18.80
2024-03-12T19:15:11.925Z,20.63
2024-03-12T19:17:42.228Z,20.90
2024-03-12T19:20:16.582Z,20.40
2024-03-12T19:22:45.208Z,19.57
2024-03-12T19:25:14.444Z,20.67
2024-03-12T19:27:45.699Z,17.67
2024-03-12T19:30:14.938Z,20.47
2024-03-12T19:32:43.601Z,20.57
2024-03-12T19:35:14.144Z,19.70
2024-03-12T19:37:44.504Z,19.57
2024-03-12T19:40:13.691Z,18.90
2024-03-12T19:42:44.610Z,20.57
2024-03-12T19:45:13.222Z,20.90
2024-03-12T19:47:45.293Z,20.20
2024-03-12T19:50:16.928Z,23.20
2024-03-12T19:52:46.421Z,21.87
2024-03-12T19:55:19.261Z,20.87
2024-03-12T19:57:48.305Z,20.57
2024-03-12T20:00:19.942Z,21.10
2024-03-12T20:02:48.229Z,21.80
2024-03-12T20:05:20.513Z,20.07
2024-03-12T20:07:48.760Z,21.13
2024-03-12T20:10:18.322Z,22.27
2024-03-12T20:12:51.645Z,20.73
2024-03-12T20:15:20.372Z,21.50
2024-03-12T20:17:49.367Z,21.43
2024-03-12T20:20:19.279Z,22.67
2024-03-12T20:22:48.689Z,21.33
2024-03-12T20:25:16.951Z,21.53
2024-03-12T20:27:45.118Z,20.93
2024-03-12T20:30:15.657Z,21.10
2024-03-12T20:32:43.834Z,21.70
2024-03-12T20:35:12.376Z,22.73
2024-03-12T20:37:41.917Z,23.83
2024-03-12T20:40:12.769Z,22.97
2024-03-12T20:42:40.966Z,22.60
2024-03-12T20:45:11.242Z,21.87
2024-03-12T20:47:39.806Z,22.97
2024-03-12T20:50:10.254Z,22.57
2024-03-12T20:52:39.858Z,23.20
2024-03-12T20:55:10.840Z,23.07
2024-03-12T20:57:39.208Z,23.60
2024-03-12T21:00:17.396Z,22.60
2024-03-12T21:02:46.794Z,23.07
2024-03-12T21:05:15.936Z,22.67
2024-03-12T21:07:44.757Z,21.77
2024-03-12T21:10:14.408Z,21.07
2024-03-12T21:12:44.046Z,22.87
2024-03-12T21:15:11.959Z,23.93
2024-03-12T21:17:39.897Z,22.70
2024-03-12T21:20:13.487Z,22.73
2024-03-12T21:22:42.803Z,22.27
2024-03-12T21:25:11.528Z,22.03
2024-03-12T21:27:40.942Z,21.10
2024-03-12T21:30:13.819Z,21.70
2024-03-12T21:32:42.447Z,22.07
2024-03-12T21:35:10.724Z,21.80
2024-03-12T21:37:39.329Z,20.43
2024-03-12T21:40:11.943Z,21.03
2024-03-12T21:42:43.744Z,20.60
2024-03-12T21:45:13.271Z,21.90
2024-03-12T21:47:43.755Z,21.17
2024-03-12T21:50:14.630Z,20.33
2024-03-12T21:52:42.626Z,21.67
2024-03-12T21:55:11.796Z,19.93
2024-03-12T21:57:44.230Z,20.27
2024-03-12T22:00:19.335Z,19.87
2024-03-12T22:02:48.327Z,19.50
2024-03-12T22:05:17.213Z,19.40
2024-03-12T22:07:45.236Z,20.37
2024-03-12T22:10:13.985Z,20.40
2024-03-12T22:12:46.124Z,19.50
2024-03-12T22:15:15.946Z,19.33
2024-03-12T22:17:45.300Z,19.40
2024-03-12T22:20:16.038Z,18.03
2024-03-12T22:22:44.697Z,17.43
2024-03-12T22:25:13.938Z,16.97
2024-03-12T22:27:44.942Z,18.10
2024-03-12T22:30:13.551Z,17.70
2024-03-12T22:32:43.173Z,15.43
2024-03-12T22:35:11.405Z,17.00
2024-03-12T22:37:39.917Z,15.90
2024-03-12T22:40:11.076Z,15.70
2024-03-12T22:42:39.848Z,15.97
2024-03-12T22:45:12.255Z,16.70
2024-03-12T22:47:40.796Z,16.23
2024-03-12T22:50:09.978Z,17.27
2024-03-12T22:52:38.257Z,15.97
2024-03-12T22:55:08.595Z,15.30
2024-03-12T22:57:39.835Z,15.93
2024-03-12T23:00:25.430Z,16.67
2024-03-12T23:02:55.095Z,15.70
2024-03-12T23:05:23.448Z,16.10
2024-03-12T23:07:51.650Z,14.07
2024-03-12T23:10:19.279Z,14.40
2024-03-12T23:12:47.327Z,14.27
2024-03-12T23:15:16.876Z,14.07
2024-03-12T23:17:44.622Z,14.10
2024-03-12T23:20:14.278Z,13.77
2024-03-12T23:22:42.219Z,13.67
2024-03-12T23:25:10.101Z,14.10
2024-03-12T23:27:39.256Z,14.97
2024-03-12T23:30:08.732Z,14.30
2024-03-12T23:32:37.788Z,14.60
2024-03-12T23:35:05.908Z,14.50
2024-03-12T23:37:33.475Z,13.90
2024-03-12T23:40:01.224Z,13.53
2024-03-12T23:42:28.895Z,16.03
2024-03-12T23:44:56.535Z,14.50
2024-03-12T23:47:25.960Z,14.80
2024-03-12T23:49:55.108Z,15.80
2024-03-12T23:52:22.979Z,14.00
2024-03-12T23:54:50.730Z,14.83
2024-03-12T23:57:18.428Z,15.77
2024-03-12T23:59:46.420Z,15.73
